Vanlue, Ohio
Current Conditions -  °F | °C
As of 7:53 AM on Saturday 25 Oct 2014 (Local Time) from KFDY Reporting Station
Overcast Overcast  
Wind Chill: 55°   Ceiling: 4300
Heat Index: 55°   Visibility: 8mi
Dew Point: 50°   Wind: 10mph
Humidity: 83%   Direction: 220°SW
Pressure: 29.9"   Gusts: NA
Location:  40.98°N, 83.48°W
Report Text: KFDY 251153Z AUTO 22009KT 8SM OVC043 13/10 A2990 RMK AO2 SLP121 T01280100 10128 20083 56010
Loading
Personal Weather Stations






























Interactive Weather Map
Tropical Storm Tracking
New forecast layout! Learn more

10-Day Weather Forecast

Advertisements
Track Severe Weather on mobile